createdAt,value
2018-07-10T00:00:47.484Z,100678.77
2018-07-10T00:03:41.860Z,100682.14
2018-07-10T00:06:22.856Z,100682.28
2018-07-10T00:08:56.152Z,100677.67
2018-07-10T00:11:25.768Z,100668.78
2018-07-10T00:13:54.390Z,100659.25
2018-07-10T00:16:23.075Z,100666.09
2018-07-10T00:18:51.683Z,100667.34
2018-07-10T00:21:22.614Z,100677.52
2018-07-10T00:23:51.286Z,100677.52
2018-07-10T00:26:20.333Z,100674.77
2018-07-10T00:28:52.175Z,100676.41
2018-07-10T00:31:21.494Z,100683.52
2018-07-10T00:33:50.498Z,100676.38
2018-07-10T00:36:19.762Z,100682.34
2018-07-10T00:38:58.144Z,100670.86
2018-07-10T00:41:29.699Z,100679.95
2018-07-10T00:44:02.149Z,100684.46
2018-07-10T00:46:30.908Z,100684.93
2018-07-10T00:48:59.473Z,100684.95
2018-07-10T00:51:29.474Z,100683.77
2018-07-10T00:53:58.636Z,100687.22
2018-07-10T00:56:27.485Z,100684.77
2018-07-10T00:58:56.573Z,100689.84
2018-07-10T01:01:25.589Z,100676.27
2018-07-10T01:03:54.284Z,100671.81
2018-07-10T01:06:22.918Z,100672.22
2018-07-10T01:08:55.590Z,100682.30
2018-07-10T01:11:24.310Z,100666.78
2018-07-10T01:13:53.901Z,100666.86
2018-07-10T01:16:25.701Z,100674.87
2018-07-10T01:18:54.770Z,100669.71
2018-07-10T01:21:23.488Z,100673.60
2018-07-10T01:23:52.921Z,100661.06
2018-07-10T01:26:21.565Z,100661.65
2018-07-10T01:28:51.012Z,100654.23
2018-07-10T01:35:20.971Z,100658.34
2018-07-10T01:37:51.015Z,100656.27
2018-07-10T01:40:22.823Z,100650.32
2018-07-10T01:49:30.293Z,100644.98
2018-07-10T01:51:58.911Z,100637.03
2018-07-10T01:54:27.598Z,100636.34
2018-07-10T01:56:56.234Z,100630.61
2018-07-10T01:59:24.918Z,100642.40
2018-07-10T02:01:53.647Z,100648.23
2018-07-10T02:04:22.488Z,100650.19
2018-07-10T02:06:52.171Z,100643.66
2018-07-10T02:09:20.859Z,100631.54
2018-07-10T02:11:49.490Z,100633.69
2018-07-10T02:14:18.454Z,100641.52
2018-07-10T02:16:47.262Z,100641.52
2018-07-10T02:19:16.480Z,100641.03
2018-07-10T02:21:45.543Z,100633.08
2018-07-10T02:24:14.407Z,100632.73
2018-07-10T02:26:43.294Z,100634.68
2018-07-10T02:29:12.100Z,100642.31
2018-07-10T02:31:41.030Z,100639.48
2018-07-10T02:34:09.579Z,100640.74
2018-07-10T02:36:38.384Z,100643.64
2018-07-10T02:39:07.007Z,100631.88
2018-07-10T02:41:36.100Z,100637.96
2018-07-10T02:44:04.904Z,100639.16
2018-07-10T02:46:33.950Z,100642.52
2018-07-10T02:49:02.913Z,100640.45
2018-07-10T02:51:31.993Z,100647.45
2018-07-10T02:54:01.132Z,100646.63
2018-07-10T02:56:30.066Z,100651.56
2018-07-10T02:58:59.323Z,100656.12
2018-07-10T03:01:28.810Z,100659.98
2018-07-10T03:03:57.544Z,100656.32
2018-07-10T03:06:26.283Z,100649.73
2018-07-10T03:08:54.896Z,100651.66
2018-07-10T03:11:23.675Z,100666.23
2018-07-10T03:13:52.300Z,100659.22
2018-07-10T03:16:21.334Z,100660.27
2018-07-10T03:18:50.434Z,100668.48
2018-07-10T03:21:19.568Z,100676.74
2018-07-10T03:23:48.184Z,100685.89
2018-07-10T03:26:16.936Z,100682.44
2018-07-10T03:28:46.012Z,100677.91
2018-07-10T03:31:14.700Z,100673.11
2018-07-10T03:33:43.553Z,100671.19
2018-07-10T03:36:12.743Z,100664.69
2018-07-10T03:38:41.759Z,100659.95
2018-07-10T03:41:10.598Z,100654.55
2018-07-10T03:43:39.434Z,100651.98
2018-07-10T03:46:08.549Z,100656.78
2018-07-10T03:48:37.130Z,100657.28
2018-07-10T03:51:05.840Z,100652.97
2018-07-10T03:53:34.557Z,100650.02
2018-07-10T03:56:03.949Z,100651.91
2018-07-10T03:58:33.080Z,100643.20
2018-07-10T04:01:01.882Z,100636.28
2018-07-10T04:03:31.720Z,100644.37
2018-07-10T04:06:00.416Z,100642.05
2018-07-10T04:08:29.287Z,100650.25
2018-07-10T04:10:59.327Z,100649.11
2018-07-10T04:13:27.988Z,100643.37
2018-07-10T04:15:57.412Z,100642.66
2018-07-10T04:18:28.659Z,100643.45
2018-07-10T04:20:57.648Z,100648.09
2018-07-10T04:23:26.303Z,100643.23
2018-07-10T04:25:54.997Z,100638.13
2018-07-10T04:28:23.894Z,100625.56
2018-07-10T04:30:52.521Z,100623.73
2018-07-10T04:33:21.238Z,100626.30
2018-07-10T04:35:50.701Z,100611.59
2018-07-10T04:38:19.361Z,100620.39
2018-07-10T04:40:49.285Z,100621.89
2018-07-10T04:43:18.057Z,100623.80
2018-07-10T04:45:46.691Z,100625.39
2018-07-10T04:48:15.501Z,100614.95
2018-07-10T04:50:44.284Z,100611.61
2018-07-10T04:53:13.090Z,100604.62
2018-07-10T04:55:41.769Z,100605.20
2018-07-10T04:58:10.413Z,100607.45
2018-07-10T05:00:39.330Z,100607.56
2018-07-10T05:03:08.372Z,100603.92
2018-07-10T05:05:37.042Z,100604.83
2018-07-10T05:08:05.708Z,100613.48
2018-07-10T05:10:34.507Z,100617.39
2018-07-10T05:13:03.578Z,100616.19
2018-07-10T05:15:32.238Z,100622.84
2018-07-10T05:18:00.855Z,100624.30
2018-07-10T05:20:29.510Z,100618.07
2018-07-10T05:22:58.287Z,100616.04
2018-07-10T05:25:27.910Z,100614.70
2018-07-10T05:27:56.537Z,100611.03
2018-07-10T05:30:32.191Z,100608.62
2018-07-10T05:33:01.532Z,100615.95
2018-07-10T05:35:31.195Z,100617.69
2018-07-10T05:38:01.468Z,100618.25
2018-07-10T05:40:30.188Z,100617.47
2018-07-10T05:42:58.811Z,100620.39
2018-07-10T05:45:27.639Z,100615.95
2018-07-10T05:47:56.263Z,100613.64
2018-07-10T05:50:25.006Z,100616.19
2018-07-10T05:52:53.573Z,100620.86
2018-07-10T05:55:22.376Z,100623.50
2018-07-10T05:57:51.249Z,100624.51
2018-07-10T06:00:20.116Z,100627.80
2018-07-10T06:02:48.701Z,100627.00
2018-07-10T06:05:17.382Z,100622.70
2018-07-10T06:07:46.014Z,100614.98
2018-07-10T06:10:15.002Z,100618.67
2018-07-10T06:12:45.166Z,100615.13
2018-07-10T06:15:13.774Z,100621.06
2018-07-10T06:17:43.990Z,100610.30
2018-07-10T06:20:12.634Z,100613.56
2018-07-10T06:22:41.279Z,100620.53
2018-07-10T06:25:10.573Z,100617.83
2018-07-10T06:27:39.252Z,100620.19
2018-07-10T06:30:07.884Z,100623.05
2018-07-10T06:32:36.513Z,100632.03
2018-07-10T06:35:05.178Z,100619.27
2018-07-10T06:37:33.806Z,100608.82
2018-07-10T06:40:02.579Z,100611.59
2018-07-10T06:42:31.264Z,100612.91
2018-07-10T06:44:59.901Z,100619.96
2018-07-10T06:47:28.529Z,100617.27
2018-07-10T06:49:57.669Z,100620.96
2018-07-10T06:52:26.458Z,100623.52
2018-07-10T06:54:57.582Z,100614.27
2018-07-10T06:57:26.304Z,100610.37
2018-07-10T06:59:54.975Z,100618.47
2018-07-10T07:02:23.533Z,100621.55
2018-07-10T07:04:52.187Z,100627.42
2018-07-10T07:07:20.834Z,100622.94
2018-07-10T07:09:49.460Z,100614.88
2018-07-10T07:12:18.135Z,100608.27
2018-07-10T07:14:46.773Z,100603.64
2018-07-10T07:17:15.468Z,100601.39
2018-07-10T07:19:44.087Z,100604.08
2018-07-10T07:22:12.768Z,100608.48
2018-07-10T07:24:41.766Z,100613.00
2018-07-10T07:27:10.412Z,100616.09
2018-07-10T07:29:40.202Z,100620.73
2018-07-10T07:32:09.898Z,100621.97
2018-07-10T07:34:38.764Z,100622.81
2018-07-10T07:37:08.094Z,100623.01
2018-07-10T07:39:36.710Z,100623.20
2018-07-10T07:42:06.550Z,100620.79
2018-07-10T07:44:35.395Z,100619.44
2018-07-10T07:47:04.186Z,100616.21
2018-07-10T07:49:49.634Z,100620.78
2018-07-10T07:52:18.765Z,100616.45
2018-07-10T07:54:47.696Z,100617.05
2018-07-10T07:57:16.748Z,100623.20
2018-07-10T07:59:45.635Z,100617.30
2018-07-10T08:02:14.762Z,100619.93
2018-07-10T08:04:43.894Z,100612.66
2018-07-10T08:07:12.540Z,100615.53
2018-07-10T08:09:41.175Z,100616.16
2018-07-10T08:12:10.137Z,100620.14
2018-07-10T08:14:38.769Z,100616.72
2018-07-10T08:17:07.426Z,100606.22
2018-07-10T08:19:36.124Z,100607.03
2018-07-10T08:22:05.145Z,100606.95
2018-07-10T08:24:33.813Z,100607.42
2018-07-10T08:27:02.472Z,100608.98
2018-07-10T08:29:31.846Z,100610.00
2018-07-10T08:32:00.525Z,100605.39
2018-07-10T08:34:29.167Z,100599.66
2018-07-10T08:36:57.879Z,100597.75
2018-07-10T08:39:27.069Z,100600.96
2018-07-10T08:41:57.189Z,100599.70
2018-07-10T08:44:26.137Z,100593.45
2018-07-10T08:46:55.133Z,100592.61
2018-07-10T08:49:24.101Z,100584.54
2018-07-10T08:51:53.037Z,100591.70
2018-07-10T08:54:21.659Z,100585.87
2018-07-10T08:56:51.649Z,100587.11
2018-07-10T08:59:21.881Z,100587.75
2018-07-10T09:01:51.385Z,100588.94
2018-07-10T09:04:20.494Z,100587.70
2018-07-10T09:06:49.148Z,100586.52
2018-07-10T09:09:18.130Z,100583.13
2018-07-10T09:11:47.277Z,100582.95
2018-07-10T09:14:17.201Z,100582.52
2018-07-10T09:16:46.221Z,100578.05
2018-07-10T09:19:14.846Z,100579.39
2018-07-10T09:21:43.455Z,100575.87
2018-07-10T09:24:12.104Z,100578.80
2018-07-10T09:26:43.243Z,100581.58
2018-07-10T09:29:11.905Z,100576.59
2018-07-10T09:31:40.538Z,100566.45
2018-07-10T09:34:09.202Z,100571.03
2018-07-10T09:36:37.833Z,100578.84
2018-07-10T09:39:06.494Z,100572.80
2018-07-10T09:41:35.122Z,100580.02
2018-07-10T09:44:03.899Z,100581.00
2018-07-10T09:46:32.406Z,100577.33
2018-07-10T09:49:01.059Z,100576.99
2018-07-10T09:51:29.685Z,100571.36
2018-07-10T09:53:58.343Z,100569.25
2018-07-10T09:56:26.977Z,100563.42
2018-07-10T09:58:55.654Z,100565.45
2018-07-10T10:01:24.449Z,100560.36
2018-07-10T10:03:53.107Z,100560.98
2018-07-10T10:06:21.719Z,100560.95
2018-07-10T10:08:50.364Z,100560.05
2018-07-10T10:11:19.315Z,100559.03
2018-07-10T10:13:48.039Z,100555.41
2018-07-10T10:16:17.920Z,100561.74
2018-07-10T10:18:46.732Z,100561.75
2018-07-10T10:21:16.776Z,100557.97
2018-07-10T10:23:45.587Z,100566.20
2018-07-10T10:26:14.200Z,100555.28
2018-07-10T10:28:43.031Z,100559.03
2018-07-10T10:31:11.656Z,100559.63
2018-07-10T10:33:40.299Z,100565.66
2018-07-10T10:36:08.932Z,100558.62
2018-07-10T10:38:39.306Z,100554.77
2018-07-10T10:41:07.961Z,100553.03
2018-07-10T10:43:36.636Z,100549.65
2018-07-10T10:46:05.288Z,100553.58
2018-07-10T10:48:34.230Z,100551.80
2018-07-10T10:51:04.122Z,100552.23
2018-07-10T10:53:32.971Z,100549.78
2018-07-10T10:56:01.824Z,100544.19
2018-07-10T10:58:32.707Z,100546.34
2018-07-10T11:01:01.446Z,100545.20
2018-07-10T11:03:30.321Z,100542.72
2018-07-10T11:05:58.994Z,100549.28
2018-07-10T11:08:27.661Z,100544.14
2018-07-10T11:10:56.819Z,100539.52
2018-07-10T11:13:25.561Z,100544.19
2018-07-10T11:15:54.591Z,100542.87
2018-07-10T11:18:23.112Z,100536.09
2018-07-10T11:20:51.749Z,100533.28
2018-07-10T11:23:20.364Z,100535.19
2018-07-10T11:25:49.305Z,100533.44
2018-07-10T11:28:17.943Z,100538.42
2018-07-10T11:30:46.593Z,100539.08
2018-07-10T11:33:15.238Z,100540.01
2018-07-10T11:35:43.925Z,100541.17
2018-07-10T11:38:12.566Z,100538.34
2018-07-10T11:40:41.222Z,100543.44
2018-07-10T11:43:09.876Z,100536.92
2018-07-10T11:45:38.545Z,100542.30
2018-07-10T11:48:07.143Z,100533.78
2018-07-10T11:50:35.799Z,100533.90
2018-07-10T11:53:04.440Z,100542.55
2018-07-10T11:55:33.199Z,100543.39
2018-07-10T11:58:01.829Z,100542.90
2018-07-10T12:00:30.549Z,100536.72
2018-07-10T12:02:59.188Z,100536.55
2018-07-10T12:05:27.914Z,100540.38
2018-07-10T12:07:56.548Z,100539.84
2018-07-10T12:10:25.232Z,100537.36
2018-07-10T12:12:53.860Z,100537.56
2018-07-10T12:15:22.504Z,100538.14
2018-07-10T12:17:51.154Z,100532.95
2018-07-10T12:20:19.796Z,100540.09
2018-07-10T12:25:36.023Z,100537.34
2018-07-10T12:28:04.756Z,100529.06
2018-07-10T12:30:33.308Z,100529.88
2018-07-10T12:33:01.937Z,100532.28
2018-07-10T12:35:30.639Z,100528.06
2018-07-10T12:37:59.361Z,100527.52
2018-07-10T12:40:28.084Z,100521.95
2018-07-10T12:42:56.757Z,100520.38
2018-07-10T12:45:25.430Z,100522.33
2018-07-10T12:47:54.048Z,100512.36
2018-07-10T12:50:22.702Z,100522.32
2018-07-10T12:52:51.336Z,100521.16
2018-07-10T12:55:20.025Z,100518.98
2018-07-10T12:57:54.400Z,100516.15
2018-07-10T13:00:24.858Z,100522.90
2018-07-10T13:02:53.545Z,100513.28
2018-07-10T13:05:25.456Z,100515.89
2018-07-10T13:10:55.405Z,100518.84
2018-07-10T13:13:30.026Z,100516.72
2018-07-10T13:15:56.086Z,100513.50
2018-07-10T13:18:24.759Z,100515.37
2018-07-10T13:20:53.385Z,100518.84
2018-07-10T13:23:22.052Z,100515.73
2018-07-10T13:25:51.871Z,100517.03
2018-07-10T13:28:23.767Z,100525.73
2018-07-10T13:30:54.138Z,100521.50
2018-07-10T13:33:23.191Z,100522.05
2018-07-10T13:35:52.390Z,100529.30
2018-07-10T13:38:21.083Z,100526.19
2018-07-10T13:40:49.831Z,100526.59
2018-07-10T13:43:19.501Z,100529.20
2018-07-10T13:45:48.331Z,100526.73
2018-07-10T13:48:17.383Z,100523.33
2018-07-10T13:50:47.905Z,100520.05
2018-07-10T13:53:16.864Z,100520.05
2018-07-10T13:55:50.311Z,100522.23
2018-07-10T13:58:19.135Z,100531.06
2018-07-10T14:00:47.804Z,100521.19
2018-07-10T14:03:16.442Z,100522.02
2018-07-10T14:05:45.100Z,100521.98
2018-07-10T14:08:13.715Z,100523.50
2018-07-10T14:10:42.771Z,100518.63
2018-07-10T14:13:12.765Z,100518.25
2018-07-10T14:15:41.417Z,100521.47
2018-07-10T14:18:13.390Z,100514.14
2018-07-10T14:20:43.642Z,100512.73
2018-07-10T14:23:13.477Z,100513.64
2018-07-10T14:25:42.445Z,100509.75
2018-07-10T14:28:11.609Z,100505.73
2018-07-10T14:30:41.647Z,100505.88
2018-07-10T14:33:10.320Z,100503.16
2018-07-10T14:35:38.948Z,100502.84
2018-07-10T14:38:07.615Z,100502.18
2018-07-10T14:40:36.263Z,100497.28
2018-07-10T14:43:05.242Z,100500.58
2018-07-10T14:45:34.291Z,100497.76
2018-07-10T14:48:02.959Z,100496.44
2018-07-10T14:50:31.689Z,100481.20
2018-07-10T14:53:08.849Z,100484.19
2018-07-10T14:55:38.871Z,100483.84
2018-07-10T14:58:07.633Z,100489.55
2018-07-10T15:00:36.288Z,100491.80
2018-07-10T15:03:04.944Z,100493.34
2018-07-10T15:05:34.684Z,100490.95
2018-07-10T15:08:04.790Z,100491.58
2018-07-10T15:10:33.514Z,100495.24
2018-07-10T15:13:03.706Z,100489.72
2018-07-10T15:15:39.147Z,100483.03
2018-07-10T15:18:07.730Z,100485.11
2018-07-10T15:20:36.881Z,100476.94
2018-07-10T15:23:07.478Z,100476.16
2018-07-10T15:25:36.088Z,100474.72
2018-07-10T15:28:04.739Z,100470.17
2018-07-10T15:30:33.370Z,100462.31
2018-07-10T15:33:02.023Z,100458.33
2018-07-10T15:35:30.675Z,100464.36
2018-07-10T15:37:59.337Z,100457.63
2018-07-10T15:40:27.983Z,100462.46
2018-07-10T15:42:56.648Z,100453.00
2018-07-10T15:45:25.288Z,100460.17
2018-07-10T15:47:55.305Z,100455.16
2018-07-10T15:50:24.696Z,100448.73
2018-07-10T15:52:53.385Z,100450.72
2018-07-10T15:55:21.991Z,100445.28
2018-07-10T15:57:51.037Z,100450.27
2018-07-10T16:00:19.900Z,100449.17
2018-07-10T16:02:49.201Z,100452.90
2018-07-10T16:05:25.774Z,100444.84
2018-07-10T16:07:48.710Z,100452.53
2018-07-10T16:10:30.375Z,100449.36
2018-07-10T16:13:06.077Z,100450.25
2018-07-10T16:15:33.281Z,100449.78
2018-07-10T16:18:09.880Z,100453.11
2018-07-10T16:20:46.566Z,100454.65
2018-07-10T16:23:23.750Z,100459.58
2018-07-10T16:26:00.667Z,100467.47
2018-07-10T16:28:32.665Z,100466.58
2018-07-10T16:31:02.017Z,100472.61
2018-07-10T16:33:39.811Z,100471.28
2018-07-10T16:36:08.042Z,100473.06
2018-07-10T16:38:37.519Z,100470.03
2018-07-10T16:41:06.096Z,100482.02
2018-07-10T16:43:37.533Z,100472.78
2018-07-10T16:46:14.388Z,100477.31
2018-07-10T16:48:44.215Z,100481.36
2018-07-10T16:51:20.573Z,100483.38
2018-07-10T16:53:49.686Z,100478.75
2018-07-10T16:56:18.702Z,100478.91
2018-07-10T16:58:47.570Z,100483.55
2018-07-10T17:01:16.164Z,100484.48
2018-07-10T17:03:44.821Z,100485.33
2018-07-10T17:06:13.594Z,100480.97
2018-07-10T17:08:42.360Z,100484.00
2018-07-10T17:11:11.151Z,100486.08
2018-07-10T17:13:42.890Z,100486.91
2018-07-10T17:16:11.593Z,100486.03
2018-07-10T17:18:43.217Z,100484.41
2018-07-10T17:21:11.814Z,100495.20
2018-07-10T17:23:40.962Z,100498.91
2018-07-10T17:26:09.633Z,100503.24
2018-07-10T17:28:39.130Z,100502.61
2018-07-10T17:31:07.742Z,100500.31
2018-07-10T17:33:38.434Z,100499.45
2018-07-10T17:36:08.045Z,100506.27
2018-07-10T17:38:36.692Z,100502.20
2018-07-10T17:41:07.176Z,100507.22
2018-07-10T17:43:37.243Z,100506.25
2018-07-10T17:46:06.248Z,100514.34
2018-07-10T17:48:35.636Z,100510.34
2018-07-10T17:51:04.313Z,100521.75
2018-07-10T17:53:32.938Z,100514.05
2018-07-10T17:56:01.590Z,100520.91
2018-07-10T17:58:30.225Z,100517.19
2018-07-10T18:00:58.896Z,100515.61
2018-07-10T18:03:27.511Z,100515.75
2018-07-10T18:05:56.172Z,100515.70
2018-07-10T18:08:24.859Z,100514.70
2018-07-10T18:10:53.540Z,100522.39
2018-07-10T18:13:22.156Z,100517.33
2018-07-10T18:15:50.823Z,100512.30
2018-07-10T18:18:19.450Z,100514.38
2018-07-10T18:20:50.181Z,100517.39
2018-07-10T18:23:19.147Z,100516.84
2018-07-10T18:25:48.808Z,100515.61
2018-07-10T18:28:17.898Z,100518.11
2018-07-10T18:30:48.322Z,100512.88
2018-07-10T18:33:18.961Z,100517.79
2018-07-10T18:35:48.782Z,100517.45
2018-07-10T18:38:18.243Z,100517.22
2018-07-10T18:40:47.252Z,100515.27
2018-07-10T18:43:18.030Z,100511.88
2018-07-10T18:45:46.930Z,100524.25
2018-07-10T18:48:21.198Z,100517.56
2018-07-10T18:50:51.067Z,100520.41
2018-07-10T18:53:21.559Z,100518.41
2018-07-10T18:55:51.740Z,100520.54
2018-07-10T18:58:21.274Z,100518.55
2018-07-10T19:00:50.594Z,100522.81
2018-07-10T19:03:20.286Z,100526.44
2018-07-10T19:05:51.335Z,100529.80
2018-07-10T19:08:20.429Z,100527.09
2018-07-10T19:10:49.368Z,100528.45
2018-07-10T19:13:20.494Z,100529.64
2018-07-10T19:15:47.250Z,100533.06
2018-07-10T19:18:16.170Z,100537.91
2018-07-10T19:20:45.448Z,100543.73
2018-07-10T19:23:14.370Z,100536.66
2018-07-10T19:25:43.660Z,100540.09
2018-07-10T19:28:12.526Z,100541.26
2018-07-10T19:30:41.972Z,100535.91
2018-07-10T19:33:10.844Z,100543.11
2018-07-10T19:35:41.468Z,100545.42
2018-07-10T19:38:08.993Z,100544.70
2018-07-10T19:40:37.869Z,100537.72
2018-07-10T19:43:06.908Z,100541.81
2018-07-10T19:45:35.880Z,100545.03
2018-07-10T19:48:04.809Z,100545.77
2018-07-10T19:50:33.902Z,100547.60
2018-07-10T19:53:05.156Z,100546.31
2018-07-10T19:55:34.469Z,100548.38
2018-07-10T20:00:44.959Z,100546.45
2018-07-10T20:11:53.945Z,100558.21
2018-07-10T20:25:58.212Z,100555.08
2018-07-10T20:45:29.597Z,100561.94
2018-07-10T20:59:14.293Z,100553.47
2018-07-10T21:18:43.455Z,100542.28
2018-07-10T21:21:12.981Z,100538.28
2018-07-10T21:26:41.886Z,100537.55
2018-07-10T21:31:59.123Z,100536.31
2018-07-10T21:34:33.433Z,100537.20
2018-07-10T21:37:10.791Z,100545.67
2018-07-10T21:42:30.137Z,100543.97
2018-07-10T21:56:21.813Z,100537.66
2018-07-10T22:10:12.761Z,100543.45
2018-07-10T22:12:47.722Z,100540.89
2018-07-10T22:26:29.175Z,100539.02
2018-07-10T22:29:11.385Z,100545.73
2018-07-10T23:19:38.690Z,100538.14
2018-07-10T23:22:07.349Z,100538.98
2018-07-10T23:24:36.160Z,100541.55
2018-07-10T23:29:58.007Z,100531.15
2018-07-10T23:55:05.944Z,100527.48
2018-07-10T23:57:53.821Z,100530.52
